Time;durP1;ratioP1;P1;durP2;ratioP2;P2;SDS_P1;SDS_P2;PMS_P1;PMS_P2;Temp;Humidity;BMP_temperature;BMP_pressure;BME280_temperature;BME280_humidity;BME280_pressure;Samples;Min_cycle;Max_cycle;Signal;HPM_P1;HPM_P2
2021/08/10 00:01:56;;;;;;;6.53;2.77;;;16.00;99.90;;;;;;4441035;28;657587;-73
2021/08/10 00:04:44;;;;;;;9.70;3.40;;;16.00;99.90;;;;;;4404153;28;656394;-72
2021/08/10 00:07:31;;;;;;;7.27;2.63;;;16.10;99.90;;;;;;4431940;28;657549;-73
2021/08/10 00:10:19;;;;;;;8.53;2.80;;;16.10;99.90;;;;;;4421032;28;657063;-72
2021/08/10 00:13:08;;;;;;;9.37;2.70;;;16.10;99.90;;;;;;4422400;28;656777;-72
2021/08/10 00:15:55;;;;;;;9.63;3.10;;;16.10;99.90;;;;;;4400515;28;657739;-72
2021/08/10 00:18:43;;;;;;;4.07;2.70;;;16.10;99.90;;;;;;4407435;28;656390;-71
2021/08/10 00:21:30;;;;;;;10.73;3.40;;;16.10;99.90;;;;;;4420203;28;657578;-72
2021/08/10 00:24:18;;;;;;;4.37;2.63;;;16.10;99.90;;;;;;4402589;28;658093;-72
2021/08/10 00:27:06;;;;;;;8.57;2.90;;;16.10;99.90;;;;;;4409511;28;657663;-72
2021/08/10 00:29:55;;;;;;;7.17;3.13;;;16.10;99.90;;;;;;4376431;28;656450;-71
2021/08/10 00:32:42;;;;;;;16.65;3.78;;;16.10;99.90;;;;;;4399754;28;655981;-72
2021/08/10 00:35:30;;;;;;;6.97;2.80;;;16.10;99.90;;;;;;4397073;28;658809;-72
2021/08/10 00:38:17;;;;;;;7.23;3.00;;;16.20;99.90;;;;;;4417678;28;656402;-72
2021/08/10 00:41:05;;;;;;;3.90;2.57;;;16.20;99.90;;;;;;4374406;28;657941;-72
2021/08/10 00:43:52;;;;;;;12.10;3.00;;;16.20;99.90;;;;;;4417946;28;656171;-72
2021/08/10 00:46:41;;;;;;;5.97;2.63;;;16.20;99.90;;;;;;4376845;28;658679;-72
2021/08/10 00:49:29;;;;;;;4.90;3.10;;;16.20;99.90;;;;;;4402931;28;656705;-71
2021/08/10 00:52:19;;;;;;;5.47;2.83;;;16.30;99.90;;;;;;4411887;28;657326;-72
2021/08/10 00:55:08;;;;;;;3.30;2.60;;;16.20;99.90;;;;;;4398347;28;656879;-72
2021/08/10 00:57:56;;;;;;;8.27;3.10;;;16.20;99.90;;;;;;4408828;28;657010;-72
2021/08/10 01:00:43;;;;;;;11.00;3.10;;;16.20;99.90;;;;;;4402485;28;656653;-72
2021/08/10 01:03:32;;;;;;;6.83;3.00;;;16.20;99.90;;;;;;4407545;28;658885;-72
2021/08/10 01:06:25;;;;;;;5.00;2.90;;;16.30;99.90;;;;;;4391730;28;657852;-72
2021/08/10 01:09:15;;;;;;;3.43;2.90;;;16.30;99.90;;;;;;4419780;28;656155;-72
2021/08/10 01:12:06;;;;;;;7.20;2.77;;;16.40;99.90;;;;;;4397556;28;657409;-72
2021/08/10 01:14:58;;;;;;;5.60;2.90;;;16.40;99.90;;;;;;4374938;28;656859;-71
2021/08/10 01:17:49;;;;;;;13.77;2.97;;;16.40;99.90;;;;;;4401247;28;657841;-72
2021/08/10 01:21:07;;;;;;;4.70;2.97;;;16.40;99.90;;;;;;4385568;28;657794;-72
2021/08/10 01:23:59;;;;;;;4.67;3.07;;;16.40;99.90;;;;;;4408073;28;657199;-71
2021/08/10 01:26:54;;;;;;;4.30;3.00;;;16.50;99.90;;;;;;4419458;28;656948;-72
2021/08/10 01:29:46;;;;;;;9.23;2.80;;;16.50;99.90;;;;;;4422230;28;657130;-72
2021/08/10 01:32:35;;;;;;;4.50;3.10;;;16.50;99.90;;;;;;4414724;28;656700;-72
2021/08/10 01:35:23;;;;;;;4.13;2.70;;;16.50;99.90;;;;;;4431540;28;656675;-71
2021/08/10 01:38:10;;;;;;;4.33;2.50;;;16.60;99.90;;;;;;4436791;28;657963;-72
2021/08/10 01:40:58;;;;;;;4.37;2.60;;;16.60;99.90;;;;;;4430392;28;656835;-71
2021/08/10 01:43:46;;;;;;;10.87;2.90;;;16.60;99.90;;;;;;4444451;28;655996;-72
2021/08/10 01:46:33;;;;;;;5.53;3.20;;;16.60;99.90;;;;;;4412377;28;657588;-71
2021/08/10 01:49:23;;;;;;;6.90;3.10;;;16.60;99.90;;;;;;4441458;28;657240;-72
2021/08/10 01:52:13;;;;;;;6.53;3.30;;;16.70;99.90;;;;;;4418051;28;657471;-72
2021/08/10 01:55:01;;;;;;;5.43;3.73;;;16.70;99.90;;;;;;4417842;28;656919;-72
2021/08/10 01:57:48;;;;;;;6.63;3.10;;;16.80;99.90;;;;;;4422357;28;656910;-72
2021/08/10 02:00:36;;;;;;;8.53;3.60;;;16.80;99.90;;;;;;4437091;28;657743;-71
2021/08/10 02:03:25;;;;;;;8.17;3.40;;;16.90;99.90;;;;;;4413548;28;656400;-71
2021/08/10 02:06:14;;;;;;;9.07;3.03;;;17.00;99.90;;;;;;4440045;28;657071;-71
2021/08/10 02:09:02;;;;;;;7.23;3.00;;;17.00;99.90;;;;;;4409878;28;656792;-72
2021/08/10 02:11:49;;;;;;;9.57;2.97;;;16.90;99.90;;;;;;4414281;28;656121;-71
2021/08/10 02:14:37;;;;;;;9.17;3.37;;;17.00;99.90;;;;;;4431769;28;657133;-72
2021/08/10 02:17:24;;;;;;;5.33;3.43;;;17.00;99.90;;;;;;4422877;28;657431;-71
2021/08/10 02:20:13;;;;;;;6.17;3.20;;;17.00;99.90;;;;;;4439799;28;656173;-71
2021/08/10 02:23:02;;;;;;;9.87;3.60;;;17.00;99.90;;;;;;4414618;28;657789;-71
2021/08/10 02:25:50;;;;;;;6.03;3.00;;;17.10;99.90;;;;;;4416602;28;658087;-71
2021/08/10 02:28:37;;;;;;;7.23;3.07;;;17.10;99.90;;;;;;4416232;28;656861;-72
2021/08/10 02:31:25;;;;;;;4.13;2.93;;;17.10;99.90;;;;;;4408597;28;657860;-72
2021/08/10 02:34:14;;;;;;;5.30;3.00;;;17.00;99.90;;;;;;4418447;28;656833;-71
2021/08/10 02:37:01;;;;;;;6.10;3.20;;;17.10;99.90;;;;;;4420129;28;658231;-71
2021/08/10 02:39:51;;;;;;;4.03;3.13;;;17.10;99.90;;;;;;4398471;28;656609;-72
2021/08/10 02:42:38;;;;;;;6.10;3.03;;;17.10;99.90;;;;;;4401080;28;656813;-71
2021/08/10 02:45:26;;;;;;;8.13;3.27;;;17.10;99.90;;;;;;4430042;28;657020;-72
2021/08/10 02:48:13;;;;;;;3.80;3.20;;;17.10;99.90;;;;;;4400096;28;656612;-71
2021/08/10 02:51:01;;;;;;;8.63;4.07;;;17.10;99.90;;;;;;4420237;28;657474;-72
2021/08/10 02:53:49;;;;;;;13.23;3.80;;;17.10;99.90;;;;;;4411089;28;656907;-71
2021/08/10 02:56:39;;;;;;;8.83;4.07;;;17.10;99.90;;;;;;4433260;28;658894;-71
2021/08/10 02:59:31;;;;;;;7.60;4.32;;;17.10;99.90;;;;;;4406651;28;656999;-72
2021/08/10 03:02:19;;;;;;;9.93;3.40;;;17.10;99.90;;;;;;4378827;28;656971;-72
2021/08/10 03:05:10;;;;;;;9.00;3.77;;;17.10;99.90;;;;;;4428182;28;656261;-71
2021/08/10 03:07:58;;;;;;;6.87;3.50;;;17.10;99.90;;;;;;4406869;28;657131;-71
2021/08/10 03:10:46;;;;;;;7.40;3.37;;;17.10;99.90;;;;;;4401528;28;657494;-71
2021/08/10 03:13:38;;;;;;;6.10;3.77;;;17.10;99.90;;;;;;4407087;28;656710;-71
2021/08/10 03:16:25;;;;;;;7.77;3.40;;;17.10;99.90;;;;;;4393282;28;656887;-70
2021/08/10 03:19:13;;;;;;;6.67;3.60;;;17.10;99.90;;;;;;4420673;28;657030;-70
2021/08/10 03:22:00;;;;;;;5.23;3.50;;;17.10;99.90;;;;;;4426095;28;658088;-70
2021/08/10 03:24:48;;;;;;;6.00;3.47;;;17.10;99.90;;;;;;4416304;28;656501;-70
2021/08/10 03:27:36;;;;;;;9.20;3.30;;;17.10;99.90;;;;;;4429745;28;657255;-70
2021/08/10 03:30:25;;;;;;;13.63;4.03;;;17.10;99.90;;;;;;4396978;28;657580;-70
2021/08/10 03:33:13;;;;;;;5.77;3.50;;;17.10;99.90;;;;;;4412407;28;657800;-70
2021/08/10 03:36:13;;;;;;;5.60;3.70;;;17.00;99.90;;;;;;4425470;28;657318;-70
2021/08/10 03:39:00;;;;;;;8.97;3.37;;;16.90;99.90;;;;;;4396064;28;657039;-70
2021/08/10 03:41:48;;;;;;;7.53;3.47;;;16.90;99.90;;;;;;4406738;28;656510;-70
2021/08/10 03:44:36;;;;;;;7.80;3.60;;;16.90;99.90;;;;;;4429223;28;658958;-70
2021/08/10 03:47:25;;;;;;;5.83;3.43;;;16.90;99.90;;;;;;4412652;28;657073;-70
2021/08/10 03:50:13;;;;;;;7.87;3.17;;;16.90;99.90;;;;;;4424328;28;656809;-70
2021/08/10 03:53:01;;;;;;;7.23;3.50;;;16.90;99.90;;;;;;4425830;28;658062;-70
2021/08/10 03:55:48;;;;;;;6.07;2.90;;;17.00;99.90;;;;;;4397809;28;657166;-70
2021/08/10 03:58:38;;;;;;;4.90;3.10;;;16.90;99.90;;;;;;4427122;28;657682;-70
2021/08/10 04:01:26;;;;;;;6.40;3.13;;;16.90;99.90;;;;;;4402200;28;657860;-70
2021/08/10 04:04:15;;;;;;;9.40;3.30;;;16.90;99.90;;;;;;4402366;28;656845;-70
2021/08/10 04:07:04;;;;;;;4.47;3.30;;;16.90;99.90;;;;;;4418873;28;657392;-70
2021/08/10 04:09:51;;;;;;;4.77;3.07;;;16.90;99.90;;;;;;4442050;28;657569;-70
2021/08/10 04:12:39;;;;;;;5.07;3.00;;;16.90;99.90;;;;;;4408989;28;657027;-70
2021/08/10 04:15:26;;;;;;;9.80;3.30;;;16.90;99.90;;;;;;4422323;28;656680;-70
2021/08/10 04:18:15;;;;;;;9.87;3.40;;;17.00;99.90;;;;;;4398118;28;656742;-70
2021/08/10 04:21:04;;;;;;;13.47;3.30;;;16.90;99.90;;;;;;4419927;28;656702;-70
2021/08/10 04:23:52;;;;;;;7.10;2.93;;;16.90;99.90;;;;;;4412807;28;657880;-70
2021/08/10 04:26:39;;;;;;;8.03;3.10;;;16.90;99.90;;;;;;4407846;28;657194;-70
2021/08/10 04:29:27;;;;;;;4.47;3.10;;;16.80;99.90;;;;;;4426487;28;656717;-70
2021/08/10 04:32:15;;;;;;;8.23;3.40;;;16.80;99.90;;;;;;4406984;28;657915;-70
2021/08/10 04:35:04;;;;;;;6.53;3.23;;;16.80;99.90;;;;;;4431372;28;657739;-70
2021/08/10 04:37:53;;;;;;;8.70;3.70;;;16.80;99.90;;;;;;4415064;28;657756;-69
2021/08/10 04:40:40;;;;;;;4.70;3.20;;;16.80;99.90;;;;;;4415533;28;656668;-70
2021/08/10 04:43:28;;;;;;;7.50;3.13;;;16.90;99.90;;;;;;4428897;28;656374;-70
2021/08/10 04:46:16;;;;;;;4.97;3.47;;;17.00;99.90;;;;;;4443045;28;656600;-70
2021/08/10 04:49:05;;;;;;;7.00;2.93;;;17.00;99.90;;;;;;4420772;28;656407;-69
2021/08/10 04:51:52;;;;;;;7.53;3.40;;;16.90;99.90;;;;;;4436104;28;656975;-70
2021/08/10 04:54:41;;;;;;;8.27;3.00;;;16.90;99.90;;;;;;4415307;28;657527;-69
2021/08/10 04:57:29;;;;;;;9.47;3.37;;;17.00;99.90;;;;;;4410177;28;656578;-70
2021/08/10 05:00:17;;;;;;;6.03;3.03;;;16.90;99.90;;;;;;4435313;28;656664;-70
2021/08/10 05:03:05;;;;;;;6.80;3.43;;;16.90;99.90;;;;;;4420034;28;656916;-70
2021/08/10 05:05:52;;;;;;;5.97;4.80;;;17.00;99.90;;;;;;4429716;28;656264;-70
2021/08/10 05:08:40;;;;;;;5.97;3.60;;;17.10;99.90;;;;;;4408249;28;657481;-70
2021/08/10 05:11:29;;;;;;;5.53;3.50;;;17.20;99.90;;;;;;4435301;28;656105;-70
2021/08/10 05:14:16;;;;;;;6.03;3.40;;;17.40;99.90;;;;;;4407946;28;656399;-70
2021/08/10 05:17:04;;;;;;;4.73;3.20;;;17.60;99.90;;;;;;4408204;28;656371;-70
2021/08/10 05:19:52;;;;;;;4.33;2.60;;;17.80;99.90;;;;;;4435185;28;657434;-70
2021/08/10 05:22:41;;;;;;;4.23;3.00;;;17.90;99.90;;;;;;4412458;28;656711;-70
2021/08/10 05:25:28;;;;;;;8.17;3.00;;;18.10;99.90;;;;;;4417997;28;656669;-70
2021/08/10 05:28:18;;;;;;;9.30;3.80;;;18.20;99.90;;;;;;4438921;28;657104;-70
2021/08/10 05:31:06;;;;;;;6.80;3.60;;;18.20;99.90;;;;;;4417050;28;657433;-70
2021/08/10 05:33:53;;;;;;;8.57;3.50;;;18.20;99.90;;;;;;4422679;28;656736;-70
2021/08/10 05:36:41;;;;;;;6.40;3.90;;;18.30;99.90;;;;;;4433790;28;657227;-70
2021/08/10 05:39:28;;;;;;;7.23;3.30;;;18.50;99.90;;;;;;4411821;28;656524;-70
2021/08/10 05:42:16;;;;;;;8.80;4.47;;;18.50;99.90;;;;;;4436993;28;657228;-70
2021/08/10 05:45:06;;;;;;;6.93;4.50;;;18.70;99.90;;;;;;4406805;28;656626;-70
2021/08/10 05:47:53;;;;;;;8.60;4.77;;;18.70;99.90;;;;;;4396619;28;656728;-70
2021/08/10 05:50:41;;;;;;;14.80;5.80;;;18.80;99.90;;;;;;4432761;28;657422;-70
2021/08/10 05:53:30;;;;;;;11.63;6.23;;;18.90;99.90;;;;;;4412387;28;658334;-70
2021/08/10 05:56:18;;;;;;;12.40;6.00;;;19.00;99.90;;;;;;4413551;28;657585;-70
2021/08/10 05:59:06;;;;;;;15.27;7.03;;;19.10;99.90;;;;;;4434697;28;657764;-70
2021/08/10 06:01:55;;;;;;;14.63;6.83;;;19.30;99.90;;;;;;4413108;28;658090;-70
2021/08/10 06:04:42;;;;;;;14.67;7.83;;;19.50;99.90;;;;;;4439548;28;658346;-70
2021/08/10 06:07:30;;;;;;;17.60;7.33;;;19.50;99.90;;;;;;4413380;28;659164;-70
2021/08/10 06:10:18;;;;;;;13.70;7.47;;;19.60;99.90;;;;;;4426082;28;657351;-70
2021/08/10 06:13:06;;;;;;;13.10;7.30;;;19.70;99.90;;;;;;4435383;28;657810;-70
2021/08/10 06:15:54;;;;;;;14.70;7.77;;;19.80;99.90;;;;;;4412649;28;658293;-70
2021/08/10 06:18:43;;;;;;;14.70;8.10;;;19.90;99.90;;;;;;4431318;28;657375;-70
2021/08/10 06:21:34;;;;;;;14.47;7.03;;;20.00;99.90;;;;;;4413067;28;658401;-70
2021/08/10 06:24:22;;;;;;;18.47;7.83;;;20.20;99.90;;;;;;4411983;28;657963;-70
2021/08/10 06:27:09;;;;;;;12.67;7.03;;;20.30;99.90;;;;;;4423013;28;657893;-70
2021/08/10 06:29:57;;;;;;;19.70;6.97;;;20.40;99.90;;;;;;4427874;28;657981;-70
2021/08/10 06:32:45;;;;;;;18.47;7.07;;;20.40;99.90;;;;;;4419931;28;658292;-70
2021/08/10 06:35:34;;;;;;;13.07;7.10;;;20.50;99.90;;;;;;4438865;28;657721;-70
2021/08/10 06:38:21;;;;;;;12.30;6.70;;;20.60;99.90;;;;;;4409758;28;658446;-70
2021/08/10 06:41:09;;;;;;;12.33;6.10;;;20.60;99.90;;;;;;4419614;28;658167;-70
2021/08/10 06:43:57;;;;;;;12.83;5.97;;;20.70;99.90;;;;;;4427794;28;657773;-70
2021/08/10 06:46:44;;;;;;;9.50;5.63;;;20.80;99.90;;;;;;4410547;28;657605;-70
2021/08/10 06:49:32;;;;;;;13.00;6.47;;;20.80;99.90;;;;;;4440440;28;656628;-70
2021/08/10 06:52:21;;;;;;;12.60;5.40;;;21.00;99.90;;;;;;4424531;28;658088;-70
2021/08/10 06:55:09;;;;;;;11.03;5.73;;;21.00;99.90;;;;;;4421624;28;657350;-70
2021/08/10 06:57:57;;;;;;;14.53;6.20;;;21.10;99.90;;;;;;4446961;28;657359;-70
2021/08/10 07:00:44;;;;;;;14.77;5.90;;;21.20;99.90;;;;;;4421388;28;658061;-70
2021/08/10 07:03:33;;;;;;;16.47;5.97;;;21.40;99.90;;;;;;4431847;28;657937;-70
2021/08/10 07:06:21;;;;;;;12.88;6.22;;;21.60;99.90;;;;;;4405653;28;658280;-70
2021/08/10 07:09:10;;;;;;;11.83;6.27;;;21.70;99.90;;;;;;4411985;28;657212;-70
2021/08/10 07:11:57;;;;;;;13.07;5.90;;;21.90;99.90;;;;;;4429837;28;657252;-70
2021/08/10 07:14:45;;;;;;;12.43;6.47;;;22.00;99.90;;;;;;4412730;28;658993;-70
2021/08/10 07:17:33;;;;;;;14.93;6.10;;;22.30;99.90;;;;;;4421642;28;657648;-70
2021/08/10 07:20:21;;;;;;;18.53;6.17;;;22.40;99.90;;;;;;4430595;28;657949;-70
2021/08/10 07:23:08;;;;;;;21.47;5.97;;;22.60;99.90;;;;;;4412806;28;657591;-70
2021/08/10 07:25:57;;;;;;;10.40;5.30;;;22.70;99.90;;;;;;4434478;28;657617;-70
2021/08/10 07:28:45;;;;;;;10.73;5.60;;;22.90;99.90;;;;;;4412643;28;657869;-70
2021/08/10 07:31:33;;;;;;;10.37;5.13;;;22.90;99.90;;;;;;4432344;28;657788;-70
2021/08/10 07:34:21;;;;;;;9.80;5.10;;;23.10;99.90;;;;;;4432332;28;657370;-70
2021/08/10 07:37:08;;;;;;;9.80;5.03;;;23.30;99.90;;;;;;4417497;28;657285;-70
2021/08/10 07:39:56;;;;;;;11.57;5.10;;;23.50;99.90;;;;;;4439080;28;657056;-70
2021/08/10 07:42:47;;;;;;;12.63;5.37;;;23.60;99.90;;;;;;4401958;28;657595;-70
2021/08/10 07:45:36;;;;;;;9.73;5.27;;;23.60;99.90;;;;;;4408011;28;658628;-70
2021/08/10 07:48:24;;;;;;;11.57;5.20;;;23.80;99.90;;;;;;4416913;28;656324;-70
2021/08/10 07:51:12;;;;;;;9.20;4.97;;;23.80;99.90;;;;;;4435606;28;657967;-70
2021/08/10 07:53:59;;;;;;;9.33;5.00;;;24.00;99.90;;;;;;4426058;28;656801;-70
2021/08/10 07:56:47;;;;;;;11.30;5.07;;;24.20;99.90;;;;;;4428886;28;657061;-70
2021/08/10 07:59:36;;;;;;;15.57;5.47;;;24.40;99.90;;;;;;4401593;28;658091;-70
2021/08/10 08:02:24;;;;;;;14.93;4.83;;;24.50;99.90;;;;;;4395244;28;658172;-70
2021/08/10 08:05:11;;;;;;;8.20;4.73;;;24.50;99.90;;;;;;4436315;28;658086;-70
2021/08/10 08:07:59;;;;;;;9.20;5.28;;;24.40;99.90;;;;;;4429533;28;656369;-70
2021/08/10 08:10:47;;;;;;;9.67;4.73;;;24.40;99.90;;;;;;4446390;28;656569;-70
2021/08/10 08:13:35;;;;;;;11.33;5.20;;;24.60;99.90;;;;;;4419391;28;657582;-70
2021/08/10 08:16:24;;;;;;;10.48;5.38;;;24.90;99.90;;;;;;4435163;28;657528;-70
2021/08/10 08:19:11;;;;;;;9.48;5.40;;;25.00;99.90;;;;;;4411544;28;657883;-70
2021/08/10 08:21:59;;;;;;;14.25;5.78;;;24.90;99.90;;;;;;4422776;28;656575;-70
2021/08/10 08:24:47;;;;;;;11.23;5.63;;;25.10;99.90;;;;;;4437066;28;657577;-71
2021/08/10 08:27:34;;;;;;;12.05;4.60;;;25.30;99.90;;;;;;4421724;28;657371;-70
2021/08/10 08:30:22;;;;;;;7.00;4.50;;;25.30;99.90;;;;;;4439228;28;657460;-70
2021/08/10 08:33:11;;;;;;;12.13;4.90;;;25.30;99.90;;;;;;4399021;28;656546;-70
2021/08/10 08:35:59;;;;;;;13.73;4.82;;;25.40;99.90;;;;;;4407305;28;658061;-70
2021/08/10 08:38:47;;;;;;;12.38;4.65;;;25.40;99.90;;;;;;4441249;28;658026;-70
2021/08/10 08:41:34;;;;;;;10.85;4.50;;;25.60;99.90;;;;;;4419219;28;658013;-70
2021/08/10 08:44:22;;;;;;;9.20;4.40;;;25.70;99.90;;;;;;4436246;28;658033;-70
2021/08/10 08:47:10;;;;;;;9.70;5.18;;;25.80;99.90;;;;;;4417526;28;656991;-70
2021/08/10 08:50:00;;;;;;;10.13;4.70;;;25.90;99.90;;;;;;4410104;28;656670;-70
2021/08/10 08:52:51;;;;;;;9.15;3.70;;;26.00;99.90;;;;;;4412403;28;657994;-70
2021/08/10 08:55:39;;;;;;;5.97;3.88;;;26.20;99.90;;;;;;4391369;28;657067;-70
2021/08/10 08:58:26;;;;;;;6.72;3.60;;;26.40;99.90;;;;;;4425887;28;656916;-70
2021/08/10 09:01:14;;;;;;;9.52;3.97;;;26.60;99.90;;;;;;4412560;28;656752;-70
2021/08/10 09:04:06;;;;;;;5.25;3.22;;;27.00;99.90;;;;;;4438358;28;656881;-70
2021/08/10 09:06:55;;;;;;;4.38;3.35;;;27.00;99.90;;;;;;4411949;28;657402;-70
2021/08/10 09:09:45;;;;;;;6.78;3.30;;;27.20;99.90;;;;;;4423673;28;656462;-70
2021/08/10 09:12:42;;;;;;;6.07;3.67;;;27.10;99.90;;;;;;4423340;28;657415;-70
2021/08/10 09:15:31;;;;;;;7.57;3.13;;;27.30;99.90;;;;;;4404628;28;656464;-70
2021/08/10 09:18:20;;;;;;;5.32;3.03;;;27.50;99.90;;;;;;4421584;28;656921;-70
2021/08/10 09:21:09;;;;;;;3.67;2.80;;;27.80;99.90;;;;;;4432125;28;657145;-70
2021/08/10 09:23:59;;;;;;;5.40;2.38;;;28.00;99.90;;;;;;4425453;28;656531;-70
2021/08/10 09:26:47;;;;;;;4.13;2.55;;;28.00;99.90;;;;;;4410972;28;656824;-70
2021/08/10 09:29:45;;;;;;;5.55;3.05;;;28.10;99.90;;;;;;4399172;28;656931;-70
2021/08/10 09:32:33;;;;;;;4.83;2.57;;;28.30;99.90;;;;;;4384436;28;656230;-70
2021/08/10 09:35:22;;;;;;;5.95;2.53;;;28.50;99.90;;;;;;4431013;28;656567;-70
2021/08/10 09:38:12;;;;;;;5.50;2.30;;;28.70;99.90;;;;;;4424449;28;657576;-70
2021/08/10 09:41:01;;;;;;;5.28;2.50;;;28.80;99.90;;;;;;4411353;28;656101;-70
2021/08/10 09:43:50;;;;;;;3.22;2.58;;;28.60;99.90;;;;;;4420940;28;656511;-70
2021/08/10 09:46:37;;;;;;;4.28;2.63;;;28.60;99.90;;;;;;4424965;28;656915;-70
2021/08/10 09:49:25;;;;;;;7.95;2.72;;;29.00;99.90;;;;;;4404355;28;657813;-70
2021/08/10 09:52:26;;;;;;;4.43;2.72;;;29.30;99.90;;;;;;4404592;28;657290;-70
2021/08/10 09:55:14;;;;;;;3.85;2.72;;;29.50;99.90;;;;;;4380430;28;656414;-70
2021/08/10 09:58:04;;;;;;;5.32;3.20;;;29.60;99.90;;;;;;4440550;28;656722;-70
2021/08/10 10:00:53;;;;;;;5.25;3.05;;;29.30;99.90;;;;;;4419361;28;656752;-70
2021/08/10 10:03:41;;;;;;;5.07;2.50;;;29.60;99.90;;;;;;4419205;28;657207;-70
2021/08/10 10:06:32;;;;;;;5.05;2.70;;;30.00;99.90;;;;;;4408576;28;657039;-70
2021/08/10 10:09:20;;;;;;;6.55;3.15;;;30.10;99.90;;;;;;4393930;28;656451;-70
2021/08/10 10:12:09;;;;;;;5.93;3.08;;;30.20;99.90;;;;;;4398489;28;658125;-70
2021/08/10 10:15:01;;;;;;;4.65;3.10;;;30.30;99.90;;;;;;4420633;28;657066;-70
2021/08/10 10:17:48;;;;;;;6.47;3.17;;;29.80;99.90;;;;;;4381483;28;656660;-70
2021/08/10 10:20:36;;;;;;;9.13;2.80;;;29.80;99.90;;;;;;4433742;28;656965;-70
2021/08/10 10:23:26;;;;;;;6.38;2.88;;;30.00;99.90;;;;;;4403679;28;657083;-70
2021/08/10 10:26:14;;;;;;;7.95;3.53;;;29.90;99.90;;;;;;4408918;28;656331;-70
2021/08/10 10:29:01;;;;;;;6.70;3.10;;;30.30;99.90;;;;;;4426395;28;657213;-70
2021/08/10 10:31:51;;;;;;;4.97;2.83;;;30.10;99.90;;;;;;4402284;28;656643;-70
2021/08/10 10:34:39;;;;;;;4.88;3.00;;;30.40;99.90;;;;;;4413447;28;657260;-70
2021/08/10 10:37:27;;;;;;;3.15;2.85;;;30.60;99.90;;;;;;4422734;28;657086;-70
2021/08/10 10:40:16;;;;;;;7.20;2.90;;;30.70;99.90;;;;;;4400576;28;657796;-70
2021/08/10 10:43:04;;;;;;;5.07;2.90;;;31.20;99.90;;;;;;4408568;28;656487;-70
2021/08/10 10:45:54;;;;;;;6.07;2.88;;;31.20;99.90;;;;;;4420204;28;656645;-70
2021/08/10 10:48:46;;;;;;;3.77;2.63;;;30.60;99.90;;;;;;4395190;28;657863;-70
2021/08/10 10:51:34;;;;;;;4.30;3.15;;;31.10;99.90;;;;;;4378031;28;657031;-70
2021/08/10 10:54:25;;;;;;;4.00;2.42;;;30.80;99.90;;;;;;4443382;28;657002;-70
2021/08/10 10:57:37;;;;;;;3.45;2.22;;;30.80;99.90;;;;;;4390237;28;656297;-70
2021/08/10 11:00:24;;;;;;;6.33;2.60;;;30.50;99.50;;;;;;4397766;28;657346;-70
2021/08/10 11:03:13;;;;;;;3.70;2.73;;;29.90;99.90;;;;;;4438790;28;656423;-70
2021/08/10 11:06:32;;;;;;;8.43;2.95;;;29.90;99.90;;;;;;4409414;28;657279;-70
2021/08/10 11:09:57;;;;;;;6.47;3.05;;;29.80;99.90;;;;;;4388518;28;657096;-70
2021/08/10 11:12:45;;;;;;;5.20;2.97;;;30.30;99.50;;;;;;4381120;28;657710;-70
2021/08/10 11:15:54;;;;;;;5.55;2.50;;;30.10;99.90;;;;;;4431043;28;656575;-70
2021/08/10 11:18:43;;;;;;;3.47;2.40;;;29.50;98.00;;;;;;4422375;28;656411;-70
2021/08/10 11:21:32;;;;;;;3.63;2.50;;;29.40;96.40;;;;;;4399185;28;656774;-70
2021/08/10 11:24:32;;;;;;;4.95;2.60;;;28.90;97.00;;;;;;4398166;28;656450;-70
2021/08/10 11:27:33;;;;;;;3.40;2.30;;;29.00;99.90;;;;;;4400551;28;656612;-69
2021/08/10 11:30:46;;;;;;;4.40;2.10;;;28.80;96.40;;;;;;4390640;28;656906;-70
2021/08/10 11:33:40;;;;;;;3.50;2.65;;;29.10;98.20;;;;;;4390617;28;656673;-70
2021/08/10 11:36:29;;;;;;;5.05;2.55;;;29.20;98.90;;;;;;4374222;28;656395;-70
2021/08/10 11:39:18;;;;;;;4.63;2.55;;;29.60;99.90;;;;;;4414636;28;657498;-70
2021/08/10 11:42:17;;;;;;;3.83;2.30;;;30.00;99.30;;;;;;4393832;28;657350;-70
2021/08/10 11:45:05;;;;;;;2.30;1.85;;;30.30;97.50;;;;;;4394492;28;656713;-70
2021/08/10 11:48:00;;;;;;;4.55;2.03;;;30.40;93.30;;;;;;4394933;28;656649;-70
2021/08/10 11:50:49;;;;;;;6.30;2.08;;;30.70;97.50;;;;;;4371908;28;656987;-70
2021/08/10 11:53:36;;;;;;;4.30;2.42;;;30.50;91.70;;;;;;4416300;28;656969;-70
2021/08/10 11:56:38;;;;;;;3.20;2.00;;;30.20;91.70;;;;;;4380565;28;656453;-70
2021/08/10 11:59:26;;;;;;;3.00;1.88;;;30.30;93.20;;;;;;4381969;28;656466;-70
2021/08/10 12:02:13;;;;;;;4.13;2.08;;;30.30;91.10;;;;;;4376369;28;656398;-69
2021/08/10 12:05:01;;;;;;;5.00;2.30;;;30.00;91.40;;;;;;4396261;28;657274;-70
2021/08/10 12:07:50;;;;;;;2.78;2.08;;;29.60;91.10;;;;;;4391662;28;656981;-70
2021/08/10 12:10:39;;;;;;;5.35;2.05;;;29.70;92.70;;;;;;4394731;28;656169;-70
2021/08/10 12:13:29;;;;;;;5.25;2.30;;;30.10;95.30;;;;;;4411380;28;657775;-70
2021/08/10 12:16:17;;;;;;;3.30;1.90;;;30.60;93.20;;;;;;4388202;28;656891;-70
2021/08/10 12:19:04;;;;;;;4.28;2.15;;;30.50;90.50;;;;;;4381705;28;656778;-70
2021/08/10 12:21:52;;;;;;;4.05;2.10;;;29.90;89.50;;;;;;4421012;28;656659;-70
2021/08/10 12:24:40;;;;;;;6.30;2.25;;;29.20;90.80;;;;;;4391684;28;657363;-70
2021/08/10 12:27:30;;;;;;;3.90;2.25;;;29.20;91.10;;;;;;4427429;28;657547;-70
2021/08/10 12:30:19;;;;;;;4.25;2.10;;;29.70;91.10;;;;;;4434735;28;656931;-70
2021/08/10 12:33:23;;;;;;;3.17;2.45;;;29.80;88.10;;;;;;4414631;28;657643;-70
2021/08/10 12:36:10;;;;;;;3.53;2.30;;;30.00;87.90;;;;;;4384954;28;657194;-70
2021/08/10 12:39:02;;;;;;;3.47;2.20;;;30.20;88.30;;;;;;4400866;28;656173;-70
2021/08/10 12:41:50;;;;;;;2.10;1.67;;;30.20;88.20;;;;;;4415532;28;657628;-70
2021/08/10 12:44:37;;;;;;;4.00;2.25;;;30.50;90.70;;;;;;4416569;28;656589;-69
2021/08/10 12:47:33;;;;;;;3.75;2.22;;;30.30;80.20;;;;;;4397695;28;657577;-70
2021/08/10 12:50:24;;;;;;;3.10;2.20;;;30.10;86.90;;;;;;4409544;28;656979;-70
2021/08/10 12:53:26;;;;;;;5.80;2.20;;;30.00;87.40;;;;;;4398228;28;656853;-70
2021/08/10 12:56:14;;;;;;;3.70;2.22;;;29.80;87.10;;;;;;4369595;28;658044;-70
2021/08/10 12:59:01;;;;;;;5.03;2.22;;;29.20;85.60;;;;;;4442169;28;657839;-70
2021/08/10 13:01:49;;;;;;;5.95;2.38;;;28.80;89.50;;;;;;4401100;28;656874;-69
2021/08/10 13:04:38;;;;;;;6.90;2.35;;;28.80;91.00;;;;;;4425039;28;656255;-69
2021/08/10 13:07:26;;;;;;;2.95;2.10;;;29.10;85.60;;;;;;4399403;28;657252;-69
2021/08/10 13:10:14;;;;;;;3.20;2.35;;;29.50;88.00;;;;;;4408929;28;656961;-70
2021/08/10 13:13:04;;;;;;;4.53;2.00;;;29.70;82.20;;;;;;4429726;28;656456;-70
2021/08/10 13:15:52;;;;;;;7.32;2.08;;;29.80;81.80;;;;;;4401148;28;657435;-70
2021/08/10 13:18:40;;;;;;;6.57;2.47;;;29.90;81.70;;;;;;4422188;28;657459;-70
2021/08/10 13:21:42;;;;;;;2.70;2.03;;;29.80;78.70;;;;;;4421024;28;656610;-69
2021/08/10 13:24:31;;;;;;;4.50;2.25;;;29.70;86.00;;;;;;4386699;28;657159;-70
2021/08/10 13:27:26;;;;;;;5.50;2.30;;;29.90;80.00;;;;;;4427926;28;656914;-70
2021/08/10 13:30:24;;;;;;;7.85;2.22;;;30.00;82.50;;;;;;4421814;28;656696;-70
2021/08/10 13:33:14;;;;;;;5.10;1.98;;;30.10;80.30;;;;;;4416848;28;656592;-70
2021/08/10 13:36:02;;;;;;;4.70;2.22;;;29.90;72.00;;;;;;4416679;28;656798;-70
2021/08/10 13:38:51;;;;;;;3.15;2.00;;;30.00;75.90;;;;;;4424737;28;657425;-70
2021/08/10 13:41:41;;;;;;;2.88;1.85;;;30.00;72.60;;;;;;4420567;28;657012;-69
2021/08/10 13:44:28;;;;;;;4.95;2.20;;;29.80;66.40;;;;;;4421887;28;656570;-70
2021/08/10 13:47:16;;;;;;;5.97;2.00;;;29.50;76.90;;;;;;4444837;28;657646;-70
2021/08/10 13:50:04;;;;;;;2.80;1.95;;;29.40;71.30;;;;;;4420596;28;656319;-69
2021/08/10 13:52:52;;;;;;;3.17;2.08;;;29.60;71.90;;;;;;4439534;28;656595;-70
2021/08/10 13:55:41;;;;;;;3.00;2.30;;;29.90;71.40;;;;;;4422522;28;656536;-69
2021/08/10 13:58:30;;;;;;;4.13;2.38;;;30.40;72.00;;;;;;4416786;28;656992;-70
2021/08/10 14:01:19;;;;;;;6.13;2.17;;;30.40;69.00;;;;;;4440922;28;656300;-69
2021/08/10 14:04:07;;;;;;;5.35;2.30;;;30.10;70.50;;;;;;4409385;28;656807;-69
2021/08/10 14:06:56;;;;;;;4.00;2.03;;;30.00;71.80;;;;;;4410020;28;656905;-70
2021/08/10 14:09:43;;;;;;;5.47;2.00;;;30.40;74.20;;;;;;4421836;28;656578;-70
2021/08/10 14:12:33;;;;;;;4.20;2.20;;;30.40;73.50;;;;;;4435850;28;657013;-70
2021/08/10 14:15:20;;;;;;;3.55;2.17;;;30.80;72.90;;;;;;4421209;28;657754;-70
2021/08/10 14:18:08;;;;;;;4.20;2.30;;;30.80;70.60;;;;;;4421242;28;656703;-69
2021/08/10 14:20:56;;;;;;;3.40;2.10;;;31.10;71.70;;;;;;4442066;28;658518;-70
2021/08/10 14:23:43;;;;;;;4.30;2.10;;;31.00;72.60;;;;;;4422405;28;657333;-70
2021/08/10 14:26:31;;;;;;;3.05;2.25;;;31.10;72.00;;;;;;4446336;28;656811;-70
2021/08/10 14:29:20;;;;;;;4.55;2.10;;;31.20;70.80;;;;;;4412185;28;657263;-70